Meteo Giornale » Osservazioni meteo Stati Uniti (USA) » Torrance

ore: 10:47 - Osservazioni Meteo Torrance
Lat. 33° 48' N Lon. 118° 20' W Alt. 31 metri s.l.m.

sereno

23 °C

Sereno

Temp. 24 Ore

17 °C

28 °C

Ovest/Nord-Ovest

13 Km/h

Dew point 17 °C

Umidità 68 %

Visibilità  10 Km

Il sole sorge alle ore 06:27

Il sole tramonta alle ore 19:19

Data e Ora Cielo e Fenomeni T °C DP °C Um. % Pres. hPa Vis. km Vento km/h
Oggi h: 10:47 sereno Sereno 23 17 68 1016 10 O/NO 13
Oggi h: 09:47 nuvoloso Nuvoloso 22 17 73 1015 10 N 0
Oggi h: 08:47 molto_nuvoloso Molto Nuvoloso 20 17 82 1015 10 N 0
Oggi h: 07:47 molto_nuvoloso Molto Nuvoloso 20 17 82 1015 10 O 7.4
Oggi h: 06:55 molto_nuvoloso Molto Nuvoloso 18 16 88 1014 14 N 5.5
Oggi h: 06:48 molto_nuvoloso Molto Nuvoloso 28 16 48 1014 10 N 0
Oggi h: 06:35 nuvoloso Nuvoloso 18 16 88 1014 14 N 5.5
Oggi h: 06:15 sereno Sereno 18 16 88 1014 10 SO 7.4
Oggi h: 05:55 poco_nuvoloso Poco Nuvoloso 18 16 88 1014 10 O/SO 7.4
Oggi h: 05:35 poco_nuvoloso Poco Nuvoloso 17 16 93 1014 10 O/SO 7.4
Oggi h: 05:15 sereno Sereno 17 16 93 1014 10 N 5.5
Oggi h: 04:55 sereno Sereno 17 16 93 1014 10 N 5.5
Oggi h: 04:35 sereno Sereno 17 16 93 1014 10 N 0
Oggi h: 04:15 sereno Sereno 17 16 93 1014 10 N 0
Oggi h: 03:55 sereno Sereno 18 16 88 1014 10 N 5.5
Oggi h: 03:35 sereno Sereno 18 16 88 1014 10 N 0
Oggi h: 03:15 sereno Sereno 18 16 88 1014 10 N 0
Oggi h: 02:55 sereno Sereno 18 16 88 1014 10 N 0
Oggi h: 02:35 sereno Sereno 18 16 88 1014 10 N 0
Oggi h: 02:15 sereno Sereno 18 16 88 1014 10 N 5.5
Oggi h: 01:55 sereno Sereno 18 16 88 1014 10 N 0
Oggi h: 01:35 sereno Sereno 18 16 88 1014 10 N 5.5
Oggi h: 01:15 sereno Sereno 19 17 88 1014 10 N 0
Oggi h: 00:55 sereno Sereno 18 16 88 1014 10 N 0
Oggi h: 00:35 sereno Sereno 19 17 88 1014 10 N 0
Oggi h: 00:15 sereno Sereno 19 17 88 1014 10 N 0
Ieri h: 23:55 sereno Sereno 19 17 88 1014 10 N 0
Ieri h: 23:35 sereno Sereno 19 17 88 1014 10 N 0
Ieri h: 23:15 sereno Sereno 19 17 88 1014 10 N 0
Ieri h: 22:55 sereno Sereno 20 17 82 1014 10 N 0
Ieri h: 22:35 sereno Sereno 20 18 88 1014 10 O 7.4
Ieri h: 22:15 sereno Sereno 20 18 88 1014 10 O/NO 7.4
Ieri h: 21:55 sereno Sereno 20 18 88 1013 10 O/NO 9.3
Ieri h: 21:35 sereno Sereno 20 18 88 1014 10 O/NO 7.4
Ieri h: 21:15 sereno Sereno 20 18 88 1013 10 O 9.3
Ieri h: 20:55 sereno Sereno 20 18 88 1013 10 N 5.5
Ieri h: 20:35 sereno Sereno 20 18 88 1012 10 N 0
Ieri h: 20:15 sereno Sereno 20 18 88 1012 10 O 7.4
Ieri h: 19:47 poco_nuvoloso Poco Nuvoloso 20 18 88 1012 10 O/NO 14.8
Ieri h: 18:47 poco_nuvoloso Poco Nuvoloso 21 18 82 1012 10 O/NO 22.2
Ieri h: 17:47 poco_nuvoloso Poco Nuvoloso 23 18 73 1012 10 O/NO 22.2
Ieri h: 16:47 sereno Sereno 24 19 73 1012 10 O 16.7
Ieri h: 15:50 sereno Sereno 26 19 65 1012 10 NO 29.6
Ieri h: 14:52 sereno Sereno 26 19 65 1012 10 NO 29.6
Ieri h: 13:47 sereno Sereno 27 19 61 1013 10 NO 24
Ieri h: 12:47 sereno Sereno 27 19 61 1014 10 NO 18.5
Ieri h: 11:48 sereno Sereno 26 19 65 1014 10 N/NO 9.3